Time;durP1;ratioP1;P1;durP2;ratioP2;P2;SDS_P1;SDS_P2;PMS_P1;PMS_P2;Temp;Humidity;BMP_temperature;BMP_pressure;BME280_temperature;BME280_humidity;BME280_pressure;Samples;Min_cycle;Max_cycle;Signal;HPM_P1;HPM_P2
2023/07/04 00:00:07;;;;;;;18.08;4.65;;;;;;;15.10;79.58;101027.81;4998716;28;20109;-53
2023/07/04 00:02:33;;;;;;;15.52;3.88;;;;;;;15.05;80.63;101027.41;4997079;28;20391;-53
2023/07/04 00:04:59;;;;;;;15.23;3.75;;;;;;;15.06;79.67;101025.59;4997524;28;20034;-53
2023/07/04 00:07:24;;;;;;;16.77;3.92;;;;;;;15.05;79.59;101032.75;4996754;28;20542;-51
2023/07/04 00:09:50;;;;;;;17.67;3.90;;;;;;;15.04;79.70;101024.88;4998000;28;20030;-53
2023/07/04 00:12:15;;;;;;;14.77;3.92;;;;;;;15.03;80.14;101033.91;4997162;28;20038;-52
2023/07/04 00:14:43;;;;;;;17.38;4.03;;;;;;;15.01;79.46;101026.00;4995381;28;20395;-51
2023/07/04 00:17:08;;;;;;;14.82;3.65;;;;;;;15.01;79.23;101034.03;4996136;28;20033;-51
2023/07/04 00:19:34;;;;;;;16.95;4.50;;;;;;;14.98;80.50;101029.81;4998216;28;20030;-51
2023/07/04 00:21:59;;;;;;;15.43;3.88;;;;;;;14.98;81.04;101026.28;4996311;28;20384;-52
2023/07/04 00:24:25;;;;;;;18.92;4.63;;;;;;;14.94;80.63;101025.75;4998470;28;20037;-52
2023/07/04 00:26:50;;;;;;;18.05;4.10;;;;;;;14.93;80.74;101021.38;4998359;28;20015;-53
2023/07/04 00:29:17;;;;;;;18.00;4.53;;;;;;;14.93;81.17;101024.03;4996066;28;20080;-53
2023/07/04 00:31:42;;;;;;;12.73;3.95;;;;;;;14.89;80.88;101024.44;4995666;28;20034;-54
2023/07/04 00:34:07;;;;;;;14.93;4.18;;;;;;;14.87;80.50;101027.31;4999880;28;20057;-54
2023/07/04 00:36:34;;;;;;;15.02;3.80;;;;;;;14.80;81.41;101015.44;4996464;28;20023;-52
2023/07/04 00:39:00;;;;;;;15.32;4.20;;;;;;;14.85;80.65;101031.91;4997950;28;20038;-52
2023/07/04 00:41:28;;;;;;;22.80;4.85;;;;;;;14.83;81.23;101023.19;4995203;28;20034;-52
2023/07/04 00:44:11;;;;;;;18.73;4.20;;;;;;;14.84;81.58;101026.72;4999904;28;20058;-52
2023/07/04 00:46:52;;;;;;;14.07;4.47;;;;;;;14.83;81.67;101028.56;4999107;28;20133;-50
2023/07/04 00:49:37;;;;;;;15.32;4.53;;;;;;;14.80;81.32;101026.16;4993370;28;20510;-51
2023/07/04 00:52:08;;;;;;;13.75;3.95;;;;;;;14.75;81.92;101021.22;4996958;28;20030;-51
2023/07/04 00:54:52;;;;;;;14.60;4.68;;;;;;;14.77;82.04;101029.09;4999093;28;20030;-50
2023/07/04 00:57:20;;;;;;;22.08;5.07;;;;;;;14.76;82.69;101030.09;4998918;28;20030;-51
2023/07/04 00:59:51;;;;;;;20.67;5.05;;;;;;;14.74;82.99;101029.41;4996568;28;20041;-52
2023/07/04 01:02:19;;;;;;;18.98;4.63;;;;;;;14.74;82.16;101027.56;4996019;28;20038;-51
2023/07/04 01:04:48;;;;;;;17.05;4.05;;;;;;;14.75;82.81;101028.41;4985153;28;20452;-51
2023/07/04 01:07:16;;;;;;;18.88;4.10;;;;;;;14.74;83.23;101034.75;4994226;28;20065;-54
2023/07/04 01:09:49;;;;;;;16.43;3.83;;;;;;;14.78;82.93;101030.81;4994254;28;20072;-51
2023/07/04 01:12:15;;;;;;;18.52;4.15;;;;;;;14.78;84.54;101030.81;4994981;28;20494;-52
2023/07/04 01:14:42;;;;;;;16.17;4.10;;;;;;;14.76;83.55;101027.44;5002313;28;20026;-52
2023/07/04 01:17:07;;;;;;;21.27;4.75;;;;;;;14.76;83.36;101032.78;4995411;28;20030;-52
2023/07/04 01:19:35;;;;;;;20.35;4.82;;;;;;;14.74;83.89;101022.22;4999974;28;20052;-52
2023/07/04 01:22:47;;;;;;;23.65;4.53;;;;;;;14.77;82.14;101037.13;4998999;28;20034;-52
2023/07/04 01:25:42;;;;;;;16.17;4.43;;;;;;;14.73;83.94;101039.25;4968290;28;20131;-51
2023/07/04 01:28:08;;;;;;;17.02;4.15;;;;;;;14.70;83.58;101041.34;4998528;28;20034;-51
2023/07/04 01:30:38;;;;;;;18.02;4.65;;;;;;;14.68;84.69;101038.81;5007907;28;20022;-51
2023/07/04 01:33:04;;;;;;;15.75;4.65;;;;;;;14.67;84.53;101044.31;5002499;28;20018;-51
2023/07/04 01:35:29;;;;;;;24.60;4.57;;;;;;;14.64;85.78;101042.75;5001952;28;20395;-51
2023/07/04 01:37:55;;;;;;;21.10;5.25;;;;;;;14.64;84.75;101039.22;4999862;28;20084;-53
2023/07/04 01:40:21;;;;;;;15.48;4.50;;;;;;;14.61;84.47;101041.19;5003965;28;20034;-53
2023/07/04 01:42:49;;;;;;;19.20;4.65;;;;;;;14.59;85.34;101039.66;4999367;28;20504;-51
2023/07/04 01:45:14;;;;;;;21.20;4.78;;;;;;;14.61;86.22;101045.72;5004557;28;20046;-51
2023/07/04 01:47:39;;;;;;;17.77;4.25;;;;;;;14.61;85.80;101043.03;5002094;28;20116;-52
2023/07/04 01:50:07;;;;;;;18.08;4.60;;;;;;;14.60;85.65;101050.22;5004437;28;20038;-51
2023/07/04 01:52:32;;;;;;;23.38;4.78;;;;;;;14.59;85.37;101040.50;4998410;28;20026;-53
2023/07/04 01:54:58;;;;;;;19.02;4.90;;;;;;;14.61;86.81;101040.38;5002278;28;20025;-51
2023/07/04 01:57:24;;;;;;;21.85;5.32;;;;;;;14.57;86.54;101041.56;5002411;28;20034;-51
2023/07/04 01:59:49;;;;;;;15.32;5.43;;;;;;;14.62;86.43;101044.72;4997929;28;20033;-51
2023/07/04 02:02:15;;;;;;;18.73;4.43;;;;;;;14.63;86.64;101049.09;4998799;28;20494;-51
2023/07/04 02:04:40;;;;;;;19.75;4.47;;;;;;;14.64;86.60;101040.09;5002986;28;20025;-51
2023/07/04 02:07:06;;;;;;;18.13;4.38;;;;;;;14.65;86.52;101039.09;5014285;28;20026;-50
2023/07/04 02:09:31;;;;;;;19.00;4.47;;;;;;;14.65;86.73;101028.41;5002577;28;20030;-51
2023/07/04 02:11:57;;;;;;;19.90;4.50;;;;;;;14.68;85.79;101035.31;4991810;28;20515;-50
2023/07/04 02:14:22;;;;;;;18.55;4.55;;;;;;;14.69;87.03;101036.97;4999860;28;20394;-54
2023/07/04 02:16:49;;;;;;;19.70;4.43;;;;;;;14.71;86.69;101027.00;4996745;28;20034;-52
2023/07/04 02:19:15;;;;;;;22.05;4.90;;;;;;;14.70;87.05;101027.97;5003681;28;20112;-53
2023/07/04 02:21:40;;;;;;;20.65;5.85;;;;;;;14.72;87.08;101028.69;5001587;28;20104;-54
2023/07/04 02:24:05;;;;;;;20.00;5.20;;;;;;;14.74;86.74;101032.09;5002721;28;20056;-53
2023/07/04 02:26:32;;;;;;;17.08;4.65;;;;;;;14.74;86.29;101024.91;5000189;28;20022;-54
2023/07/04 02:28:58;;;;;;;19.48;4.82;;;;;;;14.74;87.16;101032.91;5000779;28;20026;-51
2023/07/04 02:31:24;;;;;;;18.25;4.45;;;;;;;14.77;86.73;101031.78;5003584;28;20057;-50
2023/07/04 02:33:49;;;;;;;22.13;4.50;;;;;;;14.78;87.57;101034.31;5002962;28;20068;-50
2023/07/04 02:36:15;;;;;;;24.10;5.30;;;;;;;14.79;88.66;101032.50;5001565;28;20105;-51
2023/07/04 02:38:41;;;;;;;21.35;5.07;;;;;;;14.80;88.89;101040.38;5003316;28;20045;-50
2023/07/04 02:41:07;;;;;;;20.90;5.13;;;;;;;14.79;89.54;101053.91;5003451;28;20399;-52
2023/07/04 02:43:33;;;;;;;20.58;5.07;;;;;;;14.80;91.08;101056.44;5001631;28;20108;-54
2023/07/04 02:46:00;;;;;;;24.30;5.97;;;;;;;14.80;93.33;101044.88;5001381;28;20177;-52
2023/07/04 02:48:26;;;;;;;17.20;5.10;;;;;;;14.76;94.35;101049.66;4998407;28;20037;-51
2023/07/04 02:50:51;;;;;;;23.85;6.35;;;;;;;14.70;95.07;101038.69;5002742;28;20029;-52
2023/07/04 02:53:22;;;;;;;19.38;4.88;;;;;;;14.59;94.31;101034.31;4997505;28;20026;-51
2023/07/04 02:55:48;;;;;;;16.00;3.97;;;;;;;14.51;94.96;101042.16;5004842;28;20030;-51
2023/07/04 02:58:14;;;;;;;15.07;4.18;;;;;;;14.43;94.32;101035.66;5002430;28;20069;-50
2023/07/04 03:00:39;;;;;;;17.05;4.85;;;;;;;14.39;96.21;101030.75;5004104;28;20037;-54
2023/07/04 03:03:05;;;;;;;19.73;4.43;;;;;;;14.32;96.43;101024.25;5001660;28;20037;-52
2023/07/04 03:05:30;;;;;;;18.73;5.05;;;;;;;14.31;96.93;101039.44;5001774;28;20949;-52
2023/07/04 03:07:55;;;;;;;16.40;5.18;;;;;;;14.31;96.07;101044.78;5000165;28;20026;-51
2023/07/04 03:10:21;;;;;;;16.30;4.95;;;;;;;14.31;97.08;101043.94;4999513;28;20479;-54
2023/07/04 03:12:46;;;;;;;16.60;4.63;;;;;;;14.30;96.27;101042.25;5003077;28;20029;-52
2023/07/04 03:15:11;;;;;;;17.92;5.28;;;;;;;14.28;98.27;101041.53;5003647;28;20423;-52
2023/07/04 03:17:37;;;;;;;17.45;5.13;;;;;;;14.28;97.99;101042.38;4997409;28;20372;-53
2023/07/04 03:20:08;;;;;;;22.70;5.28;;;;;;;14.29;99.09;101045.88;4997898;28;20041;-52
2023/07/04 03:22:33;;;;;;;14.05;4.70;;;;;;;14.25;98.15;101031.97;4996726;28;20037;-53
2023/07/04 03:24:59;;;;;;;17.50;4.90;;;;;;;14.27;98.39;101042.50;5001837;28;20025;-52
2023/07/04 03:27:24;;;;;;;15.48;4.35;;;;;;;14.25;98.05;101046.19;4996478;28;20025;-52
2023/07/04 03:29:50;;;;;;;14.45;4.60;;;;;;;14.25;98.44;101038.16;5002088;28;20463;-51
2023/07/04 03:32:15;;;;;;;19.27;5.03;;;;;;;14.22;98.81;101040.25;4996682;28;20037;-52
2023/07/04 03:34:41;;;;;;;18.05;5.07;;;;;;;14.23;99.14;101048.13;4997733;28;20050;-52
2023/07/04 03:37:06;;;;;;;19.13;5.25;;;;;;;14.18;99.13;101046.84;5003026;28;20133;-52
2023/07/04 03:39:31;;;;;;;22.48;4.97;;;;;;;14.19;99.47;101051.22;5001444;28;20065;-54
2023/07/04 03:41:57;;;;;;;19.00;5.55;;;;;;;14.16;99.86;101056.84;4997836;28;20027;-52
2023/07/04 03:44:22;;;;;;;17.95;4.82;;;;;;;14.13;99.72;101051.75;5003481;28;20030;-51
2023/07/04 03:46:47;;;;;;;17.90;4.93;;;;;;;14.12;99.38;101052.72;4998924;28;20042;-54
2023/07/04 03:49:12;;;;;;;20.27;4.75;;;;;;;14.06;100.00;101052.28;4999414;28;20472;-51
2023/07/04 03:51:38;;;;;;;23.55;5.30;;;;;;;14.07;99.83;101054.00;4999568;28;20029;-51
2023/07/04 03:54:03;;;;;;;21.63;5.28;;;;;;;14.03;100.00;101051.72;5001448;28;20026;-52
2023/07/04 03:56:28;;;;;;;21.48;5.40;;;;;;;14.03;100.00;101046.38;4998531;28;20509;-55
2023/07/04 03:58:54;;;;;;;17.67;5.40;;;;;;;14.01;99.38;101048.34;4999253;28;20025;-54
2023/07/04 04:01:19;;;;;;;16.73;4.85;;;;;;;13.98;99.95;101049.44;4997370;28;20038;-53
2023/07/04 04:03:45;;;;;;;23.55;5.47;;;;;;;14.00;100.00;101054.66;4998800;28;20113;-55
2023/07/04 04:06:10;;;;;;;23.75;5.80;;;;;;;13.99;99.82;101058.28;4996713;28;20088;-54
2023/07/04 04:08:35;;;;;;;22.55;5.30;;;;;;;13.97;100.00;101068.28;4998053;28;20023;-52
2023/07/04 04:11:01;;;;;;;26.73;5.75;;;;;;;13.96;100.00;101069.28;4999395;28;20026;-52
2023/07/04 04:13:27;;;;;;;22.42;5.80;;;;;;;13.93;100.00;101062.38;4993985;28;20030;-52
2023/07/04 04:15:53;;;;;;;22.92;5.85;;;;;;;13.92;100.00;101052.66;4998617;28;20153;-53
2023/07/04 04:18:19;;;;;;;17.80;5.07;;;;;;;13.93;100.00;101054.34;4999565;28;20076;-53
2023/07/04 04:20:44;;;;;;;21.35;5.78;;;;;;;13.95;100.00;101060.41;4997661;28;20034;-55
2023/07/04 04:23:10;;;;;;;19.23;5.20;;;;;;;13.94;100.00;101066.72;5001012;28;20025;-55
2023/07/04 04:25:38;;;;;;;22.23;5.35;;;;;;;13.94;100.00;101061.41;4999338;28;20098;-54
2023/07/04 04:28:07;;;;;;;20.27;5.38;;;;;;;13.94;100.00;101063.19;4998557;28;20434;-54
2023/07/04 04:30:32;;;;;;;;;;;;;;;14.04;99.53;101066.78;4999193;28;20061;-55
2023/07/04 04:33:02;;;;;;;23.10;6.23;;;;;;;13.97;100.00;101068.28;5001021;28;19953;-51
2023/07/04 04:35:28;;;;;;;17.00;5.13;;;;;;;13.94;100.00;101073.88;4994443;28;20141;-52
2023/07/04 04:37:53;;;;;;;26.20;5.93;;;;;;;13.97;100.00;101078.97;4997694;28;20092;-52
2023/07/04 04:40:19;;;;;;;16.95;4.82;;;;;;;13.97;100.00;101081.63;4999224;28;20041;-52
2023/07/04 04:42:44;;;;;;;20.60;5.47;;;;;;;13.96;100.00;101079.97;5001408;28;20030;-53
2023/07/04 04:45:11;;;;;;;25.08;5.82;;;;;;;13.97;100.00;101082.50;4998668;28;20037;-52
2023/07/04 04:47:38;;;;;;;23.30;5.88;;;;;;;13.98;100.00;101091.34;5000709;28;20080;-54
2023/07/04 04:50:05;;;;;;;25.55;5.57;;;;;;;13.99;100.00;101082.34;5001777;28;20038;-51
2023/07/04 04:52:31;;;;;;;25.55;5.90;;;;;;;13.99;100.00;101082.34;5006252;28;20069;-51
2023/07/04 04:54:57;;;;;;;25.35;5.78;;;;;;;14.03;100.00;101076.59;5002242;28;20066;-51
2023/07/04 04:57:23;;;;;;;19.67;5.30;;;;;;;14.08;100.00;101076.19;5002604;28;20395;-52
2023/07/04 04:59:50;;;;;;;19.75;5.22;;;;;;;14.10;100.00;101082.25;5003339;28;20057;-51
2023/07/04 05:02:15;;;;;;;22.48;5.93;;;;;;;14.13;100.00;101089.16;5003253;28;20058;-52
2023/07/04 05:04:40;;;;;;;21.45;5.35;;;;;;;14.14;100.00;101086.34;5005019;28;20057;-51
2023/07/04 05:07:06;;;;;;;22.17;5.40;;;;;;;14.19;100.00;101093.97;4996035;28;20030;-52
2023/07/04 05:09:32;;;;;;;19.40;5.53;;;;;;;14.23;100.00;101095.38;5000464;28;20085;-52
2023/07/04 05:11:57;;;;;;;20.67;5.53;;;;;;;14.28;100.00;101092.31;5002358;28;20018;-51
2023/07/04 05:14:22;;;;;;;23.98;5.70;;;;;;;14.29;100.00;101089.50;4997778;28;20026;-53
2023/07/04 05:16:48;;;;;;;27.35;6.10;;;;;;;14.36;100.00;101095.16;5003902;28;20030;-53
2023/07/04 05:19:13;;;;;;;26.15;6.10;;;;;;;14.40;100.00;101093.88;5004041;28;20029;-51
2023/07/04 05:21:38;;;;;;;21.92;5.22;;;;;;;14.43;100.00;101088.25;5002705;28;20468;-52
2023/07/04 05:24:04;;;;;;;22.52;5.68;;;;;;;14.43;100.00;101091.78;4998127;28;20026;-51
2023/07/04 05:26:30;;;;;;;25.58;6.55;;;;;;;14.49;100.00;101093.06;5002825;28;20093;-55
2023/07/04 05:28:58;;;;;;;25.05;5.78;;;;;;;14.52;100.00;101092.81;5004816;28;20034;-54
2023/07/04 05:31:27;;;;;;;23.67;5.70;;;;;;;14.54;100.00;101092.66;5004451;28;20026;-52
2023/07/04 05:33:53;;;;;;;23.00;6.15;;;;;;;14.67;100.00;101105.78;4999977;28;20081;-53
2023/07/04 05:36:22;;;;;;;21.02;5.93;;;;;;;14.78;100.00;101103.84;4999111;28;20093;-55
2023/07/04 05:38:52;;;;;;;24.80;6.10;;;;;;;14.88;100.00;101101.19;4999105;28;20415;-52
2023/07/04 05:41:20;;;;;;;26.60;5.70;;;;;;;14.99;98.77;101103.72;5004531;28;20520;-55
2023/07/04 05:43:46;;;;;;;25.63;5.82;;;;;;;15.08;99.72;101109.22;5003577;28;20110;-54
2023/07/04 05:46:13;;;;;;;20.02;5.35;;;;;;;15.18;99.07;101102.88;5000962;28;20446;-54
2023/07/04 05:48:40;;;;;;;20.35;5.18;;;;;;;15.33;98.35;101100.59;5001256;28;20042;-52
2023/07/04 05:51:08;;;;;;;23.95;5.22;;;;;;;15.46;97.39;101100.31;5002315;28;20026;-52
2023/07/04 05:53:35;;;;;;;21.88;5.65;;;;;;;15.61;96.06;101098.03;4998720;28;20112;-51
2023/07/04 05:56:11;;;;;;;19.83;6.18;;;;;;;15.79;96.47;101106.22;4999106;28;20104;-51
2023/07/04 05:58:39;;;;;;;21.80;4.82;;;;;;;15.89;93.33;101108.84;4996519;28;20416;-52
2023/07/04 06:01:14;;;;;;;21.90;5.13;;;;;;;15.99;94.67;101100.78;5002233;28;20022;-52
2023/07/04 06:03:40;;;;;;;16.85;4.97;;;;;;;16.08;91.48;101114.13;4997812;28;20029;-51
2023/07/04 06:06:14;;;;;;;22.70;6.05;;;;;;;16.23;92.59;101109.13;5001409;28;20117;-52
2023/07/04 06:08:39;;;;;;;23.08;5.55;;;;;;;16.38;92.93;101104.13;4999344;28;20034;-53
2023/07/04 06:11:05;;;;;;;17.00;4.68;;;;;;;16.55;91.89;101107.84;4997842;28;20032;-49
2023/07/04 06:13:30;;;;;;;18.77;5.05;;;;;;;16.67;91.14;101113.00;4997211;28;20451;-50
2023/07/04 06:15:57;;;;;;;23.13;6.07;;;;;;;16.85;90.37;101123.78;4998762;28;20034;-50
2023/07/04 06:18:23;;;;;;;19.00;5.32;;;;;;;17.01;89.04;101121.28;4998144;28;20502;-50
2023/07/04 06:20:48;;;;;;;20.48;5.57;;;;;;;17.16;90.04;101129.63;4996798;28;20034;-51
2023/07/04 06:23:14;;;;;;;17.77;5.03;;;;;;;17.26;85.29;101125.00;5000298;28;20026;-51
2023/07/04 06:25:39;;;;;;;22.27;5.22;;;;;;;17.34;86.46;101119.72;4972954;28;20031;-50
2023/07/04 06:28:04;;;;;;;20.70;5.10;;;;;;;17.49;86.56;101125.38;4998796;28;20041;-54
2023/07/04 06:30:34;;;;;;;20.07;5.30;;;;;;;17.65;85.64;101118.44;5001713;28;20070;-52
2023/07/04 06:32:59;;;;;;;;;;;;;;;17.81;85.37;101126.59;4994710;28;20276;-54
2023/07/04 06:35:24;;;;;;;16.40;4.30;;;;;;;17.90;81.62;101125.69;4995401;28;19926;-51
2023/07/04 06:37:49;;;;;;;21.42;4.70;;;;;;;18.01;82.40;101118.38;4998967;28;20061;-51
2023/07/04 06:40:15;;;;;;;15.32;3.80;;;;;;;18.18;80.67;101133.56;4998912;28;20042;-51
2023/07/04 06:42:40;;;;;;;17.40;3.78;;;;;;;18.34;76.86;101126.59;4998243;28;20484;-50
2023/07/04 06:45:07;;;;;;;18.30;3.97;;;;;;;18.43;77.02;101144.44;4998447;28;20337;-51
2023/07/04 06:47:32;;;;;;;14.52;4.50;;;;;;;18.58;78.05;101140.13;4996206;28;20428;-51
2023/07/04 06:49:57;;;;;;;14.07;3.83;;;;;;;18.55;76.57;101144.97;4998847;28;20048;-54
2023/07/04 06:52:23;;;;;;;16.13;4.22;;;;;;;18.54;75.15;101146.84;4998171;28;20033;-52
2023/07/04 06:54:50;;;;;;;11.80;3.75;;;;;;;18.60;73.36;101146.19;4996280;28;20045;-53
2023/07/04 06:57:15;;;;;;;16.05;4.15;;;;;;;18.73;72.65;101147.56;4996452;28;20033;-52
2023/07/04 06:59:44;;;;;;;15.23;4.20;;;;;;;18.83;70.21;101153.69;5001608;28;20046;-51
2023/07/04 07:02:10;;;;;;;12.50;3.67;;;;;;;18.83;71.57;101161.75;5000198;28;20073;-51
2023/07/04 07:04:35;;;;;;;14.10;3.70;;;;;;;18.84;68.35;101164.28;4998601;28;20050;-51
2023/07/04 07:07:00;;;;;;;17.10;3.72;;;;;;;18.84;68.28;101156.22;4994040;28;20117;-50
2023/07/04 07:09:26;;;;;;;14.52;3.83;;;;;;;18.99;67.21;101167.19;4992333;28;20060;-50
2023/07/04 07:11:52;;;;;;;12.57;3.30;;;;;;;19.18;69.01;101159.81;4998372;28;20030;-52
2023/07/04 07:14:17;;;;;;;13.23;4.03;;;;;;;19.42;67.20;101161.69;4999754;28;20157;-54
2023/07/04 07:16:42;;;;;;;13.13;3.42;;;;;;;19.55;68.09;101161.16;5000305;28;20034;-50
2023/07/04 07:19:08;;;;;;;14.68;4.22;;;;;;;19.80;66.25;101158.47;4996732;28;20034;-51
2023/07/04 07:21:33;;;;;;;15.25;3.35;;;;;;;20.02;64.37;101156.91;4998942;28;20101;-53
2023/07/04 07:24:00;;;;;;;17.13;3.75;;;;;;;20.13;62.99;101152.03;5000125;28;20113;-53
2023/07/04 07:26:26;;;;;;;11.02;3.30;;;;;;;20.32;62.13;101168.81;4998238;28;20062;-49
2023/07/04 07:28:52;;;;;;;13.95;3.25;;;;;;;20.31;62.16;101175.22;5003864;28;20037;-55
2023/07/04 07:31:20;;;;;;;11.82;3.13;;;;;;;20.50;62.85;101177.53;4994747;28;20046;-50
2023/07/04 07:33:48;;;;;;;17.15;5.25;;;;;;;20.61;60.23;101180.84;4996773;28;20085;-50
2023/07/04 07:36:38;;;;;;;14.82;3.50;;;;;;;20.89;62.26;101187.47;5000106;28;20066;-50
2023/07/04 07:39:06;;;;;;;13.20;3.60;;;;;;;20.90;58.65;101174.84;4993788;28;20058;-50
2023/07/04 07:41:35;;;;;;;11.02;3.50;;;;;;;20.95;59.52;101177.00;4998297;28;20041;-50
2023/07/04 07:44:02;;;;;;;11.93;3.78;;;;;;;20.97;57.73;101173.09;4993798;28;20034;-50
2023/07/04 07:46:27;;;;;;;12.45;3.58;;;;;;;20.94;55.59;101178.84;4997512;28;20129;-50
2023/07/04 07:48:53;;;;;;;16.10;3.80;;;;;;;21.01;57.57;101181.69;4995624;28;20105;-50
2023/07/04 07:51:19;;;;;;;11.80;3.35;;;;;;;21.09;55.97;101184.34;4998839;28;20153;-51
2023/07/04 07:53:46;;;;;;;10.52;3.20;;;;;;;21.28;54.24;101193.00;4995658;28;20022;-50
2023/07/04 07:56:14;;;;;;;11.48;3.10;;;;;;;21.46;52.95;101185.41;4999900;28;20037;-51
2023/07/04 07:58:40;;;;;;;12.82;3.78;;;;;;;21.61;54.02;101180.94;4999429;28;20144;-50
2023/07/04 08:01:13;;;;;;;9.95;3.33;;;;;;;21.88;53.30;101184.06;4993079;28;20081;-52
2023/07/04 08:03:39;;;;;;;12.77;3.28;;;;;;;22.20;53.26;101182.06;4995003;28;20030;-50
2023/07/04 08:06:04;;;;;;;10.73;3.35;;;;;;;22.23;51.71;101188.97;4999929;28;20499;-50
2023/07/04 08:08:30;;;;;;;8.93;3.47;;;;;;;22.45;52.34;101181.78;4994673;28;20081;-50
2023/07/04 08:10:55;;;;;;;11.20;3.33;;;;;;;22.63;52.79;101187.69;4989592;28;20073;-50
2023/07/04 08:13:21;;;;;;;14.43;3.45;;;;;;;22.72;51.03;101185.69;4995362;28;20484;-50
2023/07/04 08:15:53;;;;;;;9.98;2.80;;;;;;;22.70;49.34;101190.47;4991829;28;20038;-52
2023/07/04 08:18:19;;;;;;;9.02;2.92;;;;;;;22.78;48.39;101181.38;4992882;28;20030;-52
2023/07/04 08:20:56;;;;;;;10.80;3.00;;;;;;;23.06;48.67;101186.91;5002962;28;20045;-51
2023/07/04 08:23:21;;;;;;;13.80;2.58;;;;;;;23.23;46.53;101182.97;4999881;28;20052;-52
2023/07/04 08:25:46;;;;;;;10.90;3.20;;;;;;;23.39;45.56;101181.03;5004690;28;20463;-52
2023/07/04 08:28:11;;;;;;;11.25;3.30;;;;;;;23.44;46.26;101190.25;4988515;28;20088;-51
2023/07/04 08:30:37;;;;;;;10.43;3.33;;;;;;;23.72;45.96;101185.91;4994976;28;20081;-51
2023/07/04 08:33:02;;;;;;;9.43;2.78;;;;;;;23.83;45.45;101190.81;5000313;28;20725;-52
2023/07/04 08:35:27;;;;;;;11.20;2.92;;;;;;;23.91;42.68;101190.66;5000845;28;20499;-54
2023/07/04 08:37:53;;;;;;;11.82;2.75;;;;;;;23.88;43.05;101179.38;4997675;28;20029;-51
2023/07/04 08:40:18;;;;;;;9.23;2.80;;;;;;;24.05;43.71;101167.19;4993246;28;20061;-51
2023/07/04 08:42:45;;;;;;;9.23;2.63;;;;;;;24.39;44.24;101166.31;4994327;28;20426;-50
2023/07/04 08:45:20;;;;;;;10.05;3.03;;;;;;;24.55;42.40;101172.50;4996485;28;20037;-51
2023/07/04 08:47:45;;;;;;;10.45;2.95;;;;;;;24.74;40.96;101170.91;5001297;28;20058;-51
2023/07/04 08:50:15;;;;;;;10.40;2.67;;;;;;;25.01;40.38;101182.69;4997994;28;20495;-51
2023/07/04 08:52:52;;;;;;;11.93;3.10;;;;;;;25.21;42.94;101173.75;5001998;28;20019;-52
2023/07/04 08:55:19;;;;;;;11.75;2.53;;;;;;;25.24;38.54;101184.22;4998002;28;20030;-51
2023/07/04 08:58:00;;;;;;;8.85;2.30;;;;;;;25.39;40.96;101179.44;5003415;28;20022;-52
2023/07/04 09:00:35;;;;;;;6.43;2.55;;;;;;;25.53;39.38;101185.75;4998548;28;20030;-50
2023/07/04 09:03:25;;;;;;;12.48;2.83;;;;;;;25.69;39.47;101186.38;5002953;28;20088;-51
2023/07/04 09:06:05;;;;;;;10.70;2.95;;;;;;;25.73;40.27;101180.31;4997124;28;20424;-53
2023/07/04 09:09:03;;;;;;;6.80;3.05;;;;;;;25.82;38.02;101189.09;5000169;28;20095;-51
2023/07/04 09:11:29;;;;;;;9.18;2.80;;;;;;;25.75;37.85;101197.25;5000848;28;20038;-52
2023/07/04 09:13:59;;;;;;;8.02;2.30;;;;;;;25.55;39.11;101202.69;4996867;28;20026;-51
2023/07/04 09:16:34;;;;;;;11.15;2.63;;;;;;;25.90;38.00;101207.09;4999041;28;20544;-52
2023/07/04 09:19:05;;;;;;;8.63;2.72;;;;;;;25.79;37.66;101201.22;4994507;28;20058;-50
2023/07/04 09:21:32;;;;;;;9.43;2.67;;;;;;;26.11;38.30;101206.03;5004583;28;20036;-52
2023/07/04 09:23:59;;;;;;;10.55;2.95;;;;;;;26.22;40.59;101202.66;4999692;28;20187;-51
2023/07/04 09:26:30;;;;;;;6.18;2.83;;;;;;;26.29;37.09;101205.38;5001951;28;20365;-49
2023/07/04 09:28:57;;;;;;;9.40;2.60;;;;;;;26.29;35.96;101203.47;5000719;28;20066;-50
2023/07/04 09:31:25;;;;;;;7.13;2.60;;;;;;;26.02;36.75;101195.38;5000799;28;20030;-51
2023/07/04 09:33:53;;;;;;;8.73;2.72;;;;;;;25.95;37.01;101210.00;4995488;28;20042;-50
2023/07/04 09:36:21;;;;;;;10.77;2.85;;;;;;;26.02;37.18;101213.59;5001251;28;20080;-49
2023/07/04 09:38:55;;;;;;;13.02;3.10;;;;;;;26.17;38.47;101221.53;4999106;28;20117;-49
2023/07/04 09:41:25;;;;;;;10.43;3.15;;;;;;;26.25;36.03;101225.88;4997747;28;20045;-49
2023/07/04 09:43:53;;;;;;;10.68;2.90;;;;;;;26.35;35.74;101216.25;4994193;28;20043;-50
2023/07/04 09:46:24;;;;;;;8.02;2.88;;;;;;;25.96;34.78;101212.56;4997785;28;20502;-48
2023/07/04 09:48:50;;;;;;;9.10;2.75;;;;;;;25.67;36.73;101222.78;5005071;28;20038;-49
2023/07/04 09:51:28;;;;;;;9.38;2.50;;;;;;;26.20;38.24;101216.50;5005598;28;20076;-51
2023/07/04 09:54:14;;;;;;;11.50;2.65;;;;;;;26.37;38.78;101208.69;4996470;28;20037;-49
2023/07/04 09:56:41;;;;;;;9.15;2.90;;;;;;;26.26;33.81;101220.22;4995387;28;20434;-49
2023/07/04 09:59:16;;;;;;;7.13;2.22;;;;;;;26.10;34.03;101218.81;4998041;28;20026;-50
2023/07/04 10:01:50;;;;;;;9.68;2.45;;;;;;;26.36;33.12;101223.38;4994828;28;20030;-51
2023/07/04 10:04:25;;;;;;;5.85;2.05;;;;;;;26.59;34.48;101220.16;4996146;28;20041;-49
2023/07/04 10:06:53;;;;;;;6.95;1.90;;;;;;;26.58;34.79;101226.66;4999211;28;20014;-49
2023/07/04 10:09:20;;;;;;;5.85;2.50;;;;;;;26.46;33.96;101211.19;4993627;28;20023;-52
2023/07/04 10:11:47;;;;;;;9.15;2.72;;;;;;;26.25;35.31;101223.16;5002824;28;20066;-50
2023/07/04 10:14:14;;;;;;;8.20;2.35;;;;;;;26.38;33.95;101224.00;4997518;28;20121;-49
2023/07/04 10:16:52;;;;;;;7.78;2.78;;;;;;;26.49;35.32;101218.94;5002361;28;20032;-50
2023/07/04 10:19:22;;;;;;;9.13;2.90;;;;;;;26.55;34.55;101199.84;5003676;28;20158;-50
2023/07/04 10:21:53;;;;;;;9.35;2.65;;;;;;;26.35;34.74;101205.34;4996292;28;20140;-50
2023/07/04 10:24:24;;;;;;;5.72;2.10;;;;;;;26.42;35.74;101212.69;5002982;28;20434;-48
2023/07/04 10:26:54;;;;;;;7.40;2.50;;;;;;;26.47;35.17;101210.16;5002282;28;20057;-48
2023/07/04 10:29:35;;;;;;;9.25;2.55;;;;;;;26.68;34.66;101211.75;4996165;28;20030;-50
2023/07/04 10:32:09;;;;;;;11.73;2.55;;;;;;;26.73;34.38;101212.81;4998558;28;20022;-48
2023/07/04 10:34:36;;;;;;;8.90;2.03;;;;;;;26.79;34.11;101207.53;4993966;28;20081;-50
2023/07/04 10:37:03;;;;;;;7.53;2.25;;;;;;;27.10;33.44;101207.59;4996664;28;20036;-49
2023/07/04 10:39:30;;;;;;;6.25;2.03;;;;;;;27.11;33.05;101208.41;4996404;28;20472;-48
2023/07/04 10:42:04;;;;;;;9.13;2.28;;;;;;;26.93;34.18;101218.16;5002271;28;20570;-50
2023/07/04 10:44:32;;;;;;;6.50;2.35;;;;;;;27.21;33.85;101213.38;5001098;28;20037;-48
2023/07/04 10:47:00;;;;;;;7.88;2.17;;;;;;;27.44;32.53;101213.69;4994089;28;20518;-49
2023/07/04 10:49:28;;;;;;;6.82;2.35;;;;;;;27.47;31.95;101207.78;4992778;28;20022;-49
2023/07/04 10:52:00;;;;;;;12.82;3.50;;;;;;;27.44;31.73;101213.69;5001534;28;20026;-48
2023/07/04 10:54:25;;;;;;;7.93;2.75;;;;;;;27.66;32.87;101213.31;5000566;28;20046;-48
2023/07/04 10:56:55;;;;;;;5.85;2.30;;;;;;;27.57;32.80;101218.22;4996753;28;20072;-49
2023/07/04 10:59:33;;;;;;;10.13;2.70;;;;;;;27.38;33.70;101208.28;4998776;28;20121;-48
2023/07/04 11:02:39;;;;;;;6.43;2.37;;;;;;;27.32;35.38;101212.72;4995561;28;20026;-51
2023/07/04 11:05:11;;;;;;;7.85;2.75;;;;;;;27.10;33.66;101210.31;4990136;28;20034;-49
2023/07/04 11:07:42;;;;;;;9.05;2.72;;;;;;;27.07;32.61;101216.19;5001380;28;20022;-48
2023/07/04 11:10:11;;;;;;;5.40;2.10;;;;;;;26.77;33.08;101219.47;4994512;28;20109;-49
2023/07/04 11:12:38;;;;;;;8.98;2.97;;;;;;;26.82;32.90;101227.00;5000353;28;20038;-48
2023/07/04 11:15:18;;;;;;;9.02;2.65;;;;;;;26.72;34.79;101216.56;5001338;28;20034;-49
2023/07/04 11:17:45;;;;;;;7.32;2.60;;;;;;;26.69;32.64;101213.44;4994882;28;20104;-49
2023/07/04 11:20:19;;;;;;;9.98;2.65;;;;;;;26.43;33.31;101211.63;4997586;28;20038;-49